Franklin Park, IL

2:33 AM CST en Enero 31, 2015 (GMT -0600)
Du Page | Change Station
CLOSE
Current Station
Aeropuerto
Location: Chicago DuPage,
Altura: 758 ft
Estaciones meteorológicas cercanas
Aviso en curso: Winter Storm Watch

Alt 758 ft 41.90 °N, 88.25 °W | Updated 41 minutes ago

Nublado
Nublado
23 ° F
Sensación térmica 16 ° F
N
6
Viento Variable Viento desde SO

Hoy
Alta -- | Baja -- ° F
--% Posibilidad de precipitaciones
Ayer
Alta -- | Baja -- ° F
Precip. -- pul
7:05 AM 5:05 PM
Gibosa creciente, 88% visible
Presión 30.33 pul
Visibilidad 10.0 Millas
Nubes Nublado 9500 ft
Vientos helados 16 ° F
Punto de rocío 17 ° F
Humedad 78%
Precipitaciones 0.00 pul
Espesor de la nieve No disponible.
UV 0 de una escala de 12
Polen .10 de una escala de 12
Calidad del aire No disponible.
Flu Activity No disponible.
METAR KDPA 310752Z 22005KT 10SM OVC095 M05/M08 A3030 RMK AO2 SLP270 T10501083

More Conditions Fewer Conditions

Presión 30.33 pul
Visibilidad 10.0 Millas
Nubes Nublado 9500 ft
Vientos helados 16 ° F
Punto de rocío 17 ° F
Humedad 78%
Precipitaciones 0.00 pul
Espesor de la nieve No disponible.
UV 0 de una escala de 12
Polen .10 de una escala de 12
Calidad del aire No disponible.
Flu Activity No disponible.
METAR KDPA 310752Z 22005KT 10SM OVC095 M05/M08 A3030 RMK AO2 SLP270 T10501083

More Conditions Fewer Conditions

10-Day Weather Forecast

Almanac

Astronomía

Jan. 31, 2015 Salida Puesta
Hora real
Crepúsculo civil
Crepúsculo náutico
Crepúsculo astronómico
Luna
Horas de luz
Horas de luz
Tomorrow will be .
, % of the Moon is Illuminated

Extremos de hoy

Máximos del estado Bajos del estado

Community

WunderPhotos

Upload Photos

1,792,021 ¡fotos cargadas!

WunderBlogs® & News

Nearby

Calidad del aire

  Calidad del aire Índice AQ Contaminante
Not available.

Grosos de nieve

Estación Profundido Altura

Actividad de terremotos

Ciudad Distance Mag. Tiempo y dato
Magnitud mínima muestra es 2,5.

Temperaturas de aguas costeras

Lugar Temperatura

Estaciones meteorológicas cercanas